Time;durP1;ratioP1;P1;durP2;ratioP2;P2;SDS_P1;SDS_P2;PMS_P1;PMS_P2;Temp;Humidity;BMP_temperature;BMP_pressure;BME280_temperature;BME280_humidity;BME280_pressure;Samples;Min_cycle;Max_cycle;Signal;HPM_P1;HPM_P2
2024/03/08 00:00:26;;;;;;;;;;;4.40;99.90;;;;;;5078999;22;19970;-82
2024/03/08 00:02:52;;;;;;;;;;;4.40;99.90;;;;;;5042273;28;20000;-84
2024/03/08 00:05:18;;;;;;;;;;;4.40;99.90;;;;;;5036105;28;19921;-84
2024/03/08 00:07:43;;;;;;;;;;;4.30;99.90;;;;;;5033855;28;19909;-83
2024/03/08 00:10:11;;;;;;;;;;;4.30;99.90;;;;;;5030917;28;19913;-83
2024/03/08 00:12:41;;;;;;;;;;;4.30;99.90;;;;;;5016007;28;19956;-83
2024/03/08 00:15:08;;;;;;;;;;;4.30;99.90;;;;;;5034663;28;19924;-83
2024/03/08 00:17:33;;;;;;;;;;;4.20;99.90;;;;;;5035618;28;19996;-84
2024/03/08 00:19:59;;;;;;;;;;;4.20;99.90;;;;;;5025928;28;19947;-83
2024/03/08 00:22:24;;;;;;;;;;;4.20;99.90;;;;;;5035034;28;19916;-83
2024/03/08 00:24:53;;;;;;;;;;;4.20;99.90;;;;;;5018454;28;20359;-83
2024/03/08 00:27:20;;;;;;;;;;;4.20;99.90;;;;;;5022010;28;19945;-83
2024/03/08 00:29:46;;;;;;;;;;;4.20;99.90;;;;;;5026193;28;19913;-83
2024/03/08 00:32:13;;;;;;;;;;;4.20;99.90;;;;;;5015477;28;20470;-83
2024/03/08 00:34:38;;;;;;;;;;;4.10;99.90;;;;;;5015839;28;19925;-82
2024/03/08 00:37:04;;;;;;;;;;;4.10;99.90;;;;;;5021777;28;19909;-84
2024/03/08 00:39:29;;;;;;;;;;;4.10;99.90;;;;;;5026705;28;19933;-83
2024/03/08 00:41:55;;;;;;;;;;;4.10;99.90;;;;;;5020365;28;19913;-83
2024/03/08 00:44:20;;;;;;;;;;;4.10;99.90;;;;;;5034116;28;19913;-83
2024/03/08 00:46:46;;;;;;;;;;;4.10;99.90;;;;;;5031084;28;20008;-83
2024/03/08 00:49:12;;;;;;;;;;;4.10;99.90;;;;;;5028992;28;20399;-82
2024/03/08 00:51:38;;;;;;;;;;;4.00;1.00;;;;;;5040888;28;19913;-84
2024/03/08 00:54:03;;;;;;;;;;;4.00;1.00;;;;;;5036548;28;19981;-84
2024/03/08 00:56:29;;;;;;;;;;;3.90;1.00;;;;;;5031438;28;19920;-83
2024/03/08 00:58:54;;;;;;;;;;;3.90;78.80;;;;;;5038197;28;19919;-83
2024/03/08 01:01:19;;;;;;;;;;;3.80;99.90;;;;;;5026823;28;19923;-84
2024/03/08 01:03:45;;;;;;;;;;;3.80;99.90;;;;;;5032871;28;20356;-84
2024/03/08 01:06:11;;;;;;;;;;;3.70;99.90;;;;;;5040420;28;19909;-84
2024/03/08 01:08:38;;;;;;;;;;;3.70;1.00;;;;;;5039371;28;20295;-85
2024/03/08 01:11:04;;;;;;;;;;;3.70;1.00;;;;;;5022565;28;19917;-84
2024/03/08 01:13:30;;;;;;;;;;;3.70;1.00;;;;;;5019791;28;19914;-84
2024/03/08 01:15:55;;;;;;;;;;;3.60;1.00;;;;;;5019696;28;19968;-84
2024/03/08 01:18:21;;;;;;;;;;;3.60;1.00;;;;;;5018641;28;19916;-85
2024/03/08 01:20:47;;;;;;;;;;;3.60;99.90;;;;;;5028919;28;20000;-84
2024/03/08 01:23:13;;;;;;;;;;;3.60;99.90;;;;;;5020440;28;19909;-84
2024/03/08 01:25:38;;;;;;;;;;;3.60;99.90;;;;;;5036265;28;19909;-84
2024/03/08 01:28:04;;;;;;;;;;;3.60;99.90;;;;;;5017387;28;19978;-83
2024/03/08 01:30:32;;;;;;;;;;;3.60;99.90;;;;;;5025256;28;19920;-84
2024/03/08 01:32:58;;;;;;;;;;;3.60;99.90;;;;;;5032118;28;19993;-84
2024/03/08 01:35:23;;;;;;;;;;;3.60;99.90;;;;;;5037285;28;19961;-83
2024/03/08 01:37:49;;;;;;;;;;;3.50;99.90;;;;;;5037943;28;20294;-83
2024/03/08 01:40:16;;;;;;;;;;;3.50;99.90;;;;;;5036482;28;20443;-83
2024/03/08 01:42:42;;;;;;;;;;;3.50;1.00;;;;;;5037546;28;20260;-83
2024/03/08 01:45:07;;;;;;;;;;;3.40;1.00;;;;;;5037201;28;19974;-83
2024/03/08 01:47:33;;;;;;;;;;;3.40;1.00;;;;;;5032833;28;20003;-83
2024/03/08 01:50:01;;;;;;;;;;;3.40;1.00;;;;;;5037389;28;19955;-83
2024/03/08 01:52:27;;;;;;;;;;;3.40;1.00;;;;;;5036282;28;20425;-84
2024/03/08 01:54:53;;;;;;;;;;;3.40;1.00;;;;;;5031550;28;19968;-83
2024/03/08 01:57:19;;;;;;;;;;;3.40;99.90;;;;;;5020302;28;20354;-83
2024/03/08 01:59:44;;;;;;;;;;;3.40;99.90;;;;;;5020498;28;19964;-84
2024/03/08 02:02:11;;;;;;;;;;;3.40;99.90;;;;;;5026953;28;20344;-84
2024/03/08 02:04:37;;;;;;;;;;;3.40;1.00;;;;;;5033500;28;19981;-83
2024/03/08 02:07:05;;;;;;;;;;;3.30;1.00;;;;;;5020310;28;19933;-83
2024/03/08 02:09:31;;;;;;;;;;;3.30;1.00;;;;;;5021772;28;20336;-84
2024/03/08 02:11:57;;;;;;;;;;;3.30;1.00;;;;;;5012614;28;20008;-83
2024/03/08 02:14:23;;;;;;;;;;;3.30;1.00;;;;;;5033792;28;19984;-84
2024/03/08 02:16:49;;;;;;;;;;;3.30;1.00;;;;;;5041657;28;19909;-85
2024/03/08 02:19:14;;;;;;;;;;;3.30;1.00;;;;;;5031318;28;19917;-84
2024/03/08 02:21:39;;;;;;;;;;;3.20;1.00;;;;;;5036661;28;19968;-84
2024/03/08 02:24:05;;;;;;;;;;;3.20;24.70;;;;;;5043496;28;19909;-84
2024/03/08 02:26:31;;;;;;;;;;;3.20;99.90;;;;;;5029889;28;20107;-84
2024/03/08 02:28:56;;;;;;;;;;;3.20;99.90;;;;;;5022037;28;19913;-84
2024/03/08 02:31:22;;;;;;;;;;;3.20;99.90;;;;;;5042505;28;19909;-85
2024/03/08 02:33:47;;;;;;;;;;;3.10;99.90;;;;;;5028245;28;19977;-84
2024/03/08 02:36:13;;;;;;;;;;;3.10;99.90;;;;;;5022087;28;20394;-85
2024/03/08 02:38:41;;;;;;;;;;;3.10;99.90;;;;;;5021633;28;19909;-85
2024/03/08 02:41:07;;;;;;;;;;;3.10;99.90;;;;;;5027589;28;19940;-84
2024/03/08 02:43:33;;;;;;;;;;;3.10;99.90;;;;;;5022878;28;19920;-83
2024/03/08 02:45:59;;;;;;;;;;;3.00;99.90;;;;;;5032710;28;19909;-84
2024/03/08 02:48:25;;;;;;;;;;;3.00;1.00;;;;;;5020504;28;19965;-84
2024/03/08 02:50:51;;;;;;;;;;;3.00;1.00;;;;;;5025219;28;19909;-84
2024/03/08 02:53:18;;;;;;;;;;;3.00;1.00;;;;;;5031543;28;19909;-84
2024/03/08 02:55:44;;;;;;;;;;;2.90;1.00;;;;;;5039818;28;19921;-85
2024/03/08 02:58:13;;;;;;;;;;;2.90;1.00;;;;;;5038054;28;19909;-84
2024/03/08 03:00:39;;;;;;;;;;;2.90;1.00;;;;;;5032937;28;19917;-84
2024/03/08 03:03:04;;;;;;;;;;;2.90;1.00;;;;;;5022583;28;19952;-83
2024/03/08 03:05:30;;;;;;;;;;;2.90;1.00;;;;;;5019581;28;19932;-84
2024/03/08 03:07:55;;;;;;;;;;;2.90;1.00;;;;;;5028217;28;20283;-84
2024/03/08 03:10:21;;;;;;;;;;;2.80;1.00;;;;;;5022704;28;19948;-84
2024/03/08 03:12:48;;;;;;;;;;;2.80;1.00;;;;;;5039248;28;19916;-83
2024/03/08 03:15:14;;;;;;;;;;;2.80;1.00;;;;;;5020348;28;19920;-84
2024/03/08 03:17:42;;;;;;;;;;;2.80;2.40;;;;;;5019949;28;19913;-85
2024/03/08 03:20:13;;;;;;;;;;;2.80;17.90;;;;;;5020280;28;19919;-84
2024/03/08 03:22:40;;;;;;;;;;;2.80;98.80;;;;;;5038424;28;19917;-84
2024/03/08 03:25:06;;;;;;;;;;;2.80;99.90;;;;;;5030763;28;19931;-84
2024/03/08 03:27:32;;;;;;;;;;;2.80;99.90;;;;;;5033130;28;19920;-84
2024/03/08 03:29:58;;;;;;;;;;;2.80;99.90;;;;;;5033126;28;19909;-84
2024/03/08 03:32:23;;;;;;;;;;;2.70;99.90;;;;;;5021599;28;19949;-85
2024/03/08 03:34:52;;;;;;;;;;;2.70;99.90;;;;;;5022727;28;19914;-85
2024/03/08 03:37:20;;;;;;;;;;;2.70;43.70;;;;;;5024100;28;19914;-84
2024/03/08 03:39:49;;;;;;;;;;;2.70;45.70;;;;;;5022875;28;19971;-83
2024/03/08 03:42:16;;;;;;;;;;;2.70;91.80;;;;;;5021767;28;19983;-85
2024/03/08 03:44:43;;;;;;;;;;;2.70;68.90;;;;;;5030725;28;20380;-84
2024/03/08 03:47:09;;;;;;;;;;;2.70;99.90;;;;;;5016813;28;19940;-84
2024/03/08 03:49:34;;;;;;;;;;;2.70;99.90;;;;;;5015889;28;19918;-84
2024/03/08 03:52:00;;;;;;;;;;;2.70;99.90;;;;;;5028490;28;20393;-84
2024/03/08 03:54:25;;;;;;;;;;;2.70;99.90;;;;;;5042252;28;19917;-85
2024/03/08 03:56:53;;;;;;;;;;;2.70;99.90;;;;;;5037276;28;19913;-84
2024/03/08 03:59:18;;;;;;;;;;;2.70;99.90;;;;;;5038496;28;20437;-84
2024/03/08 04:01:44;;;;;;;;;;;2.70;99.90;;;;;;5035118;28;19917;-84
2024/03/08 04:04:09;;;;;;;;;;;2.60;1.00;;;;;;5041210;28;19916;-84
2024/03/08 04:06:35;;;;;;;;;;;2.60;1.00;;;;;;5038838;28;19913;-84
2024/03/08 04:09:00;;;;;;;;;;;2.60;1.00;;;;;;5040210;28;19967;-85
2024/03/08 04:11:26;;;;;;;;;;;2.60;1.00;;;;;;5040634;28;19924;-85
2024/03/08 04:13:52;;;;;;;;;;;2.60;1.00;;;;;;5040277;28;19959;-85
2024/03/08 04:16:18;;;;;;;;;;;2.60;1.00;;;;;;5036843;28;19921;-84
2024/03/08 04:18:44;;;;;;;;;;;2.60;1.00;;;;;;5026164;28;19915;-85
2024/03/08 04:21:09;;;;;;;;;;;2.60;1.00;;;;;;5029745;28;19940;-84
2024/03/08 04:23:35;;;;;;;;;;;2.60;1.00;;;;;;5039440;28;19913;-84
2024/03/08 04:26:05;;;;;;;;;;;2.60;1.00;;;;;;5036089;28;19909;-84
2024/03/08 04:28:31;;;;;;;;;;;2.60;1.00;;;;;;5028360;28;19999;-84
2024/03/08 04:30:56;;;;;;;;;;;2.50;1.00;;;;;;5020703;28;20443;-83
2024/03/08 04:33:23;;;;;;;;;;;2.50;1.00;;;;;;5028144;28;19910;-84
2024/03/08 04:35:49;;;;;;;;;;;2.50;44.10;;;;;;5019934;28;19969;-84
2024/03/08 04:38:15;;;;;;;;;;;2.50;56.40;;;;;;5020697;28;19948;-85
2024/03/08 04:40:41;;;;;;;;;;;2.50;99.90;;;;;;5030963;28;19909;-84
2024/03/08 04:43:08;;;;;;;;;;;2.50;99.90;;;;;;5037963;28;19920;-84
2024/03/08 04:45:33;;;;;;;;;;;2.50;99.90;;;;;;5021069;28;19984;-85
2024/03/08 04:47:59;;;;;;;;;;;2.50;99.90;;;;;;5028432;28;20367;-85
2024/03/08 04:50:24;;;;;;;;;;;2.50;99.90;;;;;;5031368;28;19913;-85
2024/03/08 04:52:50;;;;;;;;;;;2.50;99.90;;;;;;5037727;28;19909;-84
2024/03/08 04:55:15;;;;;;;;;;;2.50;99.90;;;;;;5025779;28;20371;-84
2024/03/08 04:57:41;;;;;;;;;;;2.40;1.00;;;;;;5036014;28;19920;-84
2024/03/08 05:00:10;;;;;;;;;;;2.40;1.00;;;;;;5036877;28;19928;-82
2024/03/08 05:02:38;;;;;;;;;;;2.40;97.10;;;;;;5033117;28;19913;-82
2024/03/08 05:05:06;;;;;;;;;;;2.40;99.90;;;;;;5018221;28;19917;-82
2024/03/08 05:07:32;;;;;;;;;;;2.40;99.90;;;;;;5015246;28;20064;-84
2024/03/08 05:09:58;;;;;;;;;;;2.40;99.90;;;;;;5017951;28;19921;-84
2024/03/08 05:12:23;;;;;;;;;;;2.30;99.90;;;;;;5025965;28;20384;-85
2024/03/08 05:14:49;;;;;;;;;;;2.30;1.00;;;;;;5022186;28;19976;-84
2024/03/08 05:17:16;;;;;;;;;;;2.30;1.00;;;;;;5014358;28;20515;-85
2024/03/08 05:19:41;;;;;;;;;;;2.30;1.00;;;;;;5023299;28;19914;-84
2024/03/08 05:22:07;;;;;;;;;;;2.30;92.90;;;;;;5030266;28;19928;-85
2024/03/08 05:24:33;;;;;;;;;;;2.20;5.10;;;;;;5039053;28;19917;-85
2024/03/08 05:27:00;;;;;;;;;;;2.30;99.90;;;;;;5039018;28;19909;-85
2024/03/08 05:29:25;;;;;;;;;;;2.20;99.90;;;;;;5040152;28;19909;-85
2024/03/08 05:31:54;;;;;;;;;;;2.20;48.20;;;;;;5040079;28;20344;-85
2024/03/08 05:34:21;;;;;;;;;;;2.20;1.00;;;;;;5035177;28;19914;-85
2024/03/08 05:36:49;;;;;;;;;;;2.20;1.00;;;;;;5035613;28;20327;-85
2024/03/08 05:39:15;;;;;;;;;;;2.20;99.90;;;;;;5030110;28;19913;-85
2024/03/08 05:41:41;;;;;;;;;;;2.30;99.90;;;;;;5030785;28;20397;-84
2024/03/08 05:44:06;;;;;;;;;;;2.30;1.00;;;;;;5023282;28;20024;-85
2024/03/08 05:46:32;;;;;;;;;;;2.30;1.00;;;;;;5020122;28;19964;-84
2024/03/08 05:48:58;;;;;;;;;;;2.30;99.90;;;;;;5022501;28;19923;-85
2024/03/08 05:51:26;;;;;;;;;;;2.30;99.90;;;;;;5022382;28;19940;-84
2024/03/08 05:53:53;;;;;;;;;;;2.30;99.90;;;;;;5032826;28;19920;-84
2024/03/08 05:56:18;;;;;;;;;;;2.40;12.90;;;;;;5025387;28;19924;-85
2024/03/08 05:58:45;;;;;;;;;;;2.40;1.00;;;;;;5027358;28;19909;-83
2024/03/08 06:01:12;;;;;;;;;;;2.40;1.00;;;;;;5018642;28;19917;-85
2024/03/08 06:03:44;;;;;;;;;;;2.50;99.90;;;;;;5020414;28;19928;-84
2024/03/08 06:06:13;;;;;;;;;;;2.50;99.90;;;;;;5033054;28;19910;-84
2024/03/08 06:08:39;;;;;;;;;;;2.50;99.90;;;;;;5033873;28;20009;-84
2024/03/08 06:11:05;;;;;;;;;;;2.60;16.20;;;;;;5014064;28;19910;-84
2024/03/08 06:13:31;;;;;;;;;;;2.60;1.00;;;;;;5013746;28;19992;-84
2024/03/08 06:15:57;;;;;;;;;;;2.70;1.00;;;;;;5031054;28;19965;-84
2024/03/08 06:18:22;;;;;;;;;;;2.80;99.90;;;;;;5019914;28;19956;-85
2024/03/08 06:20:48;;;;;;;;;;;2.80;20.80;;;;;;5029319;28;20128;-84
2024/03/08 06:23:17;;;;;;;;;;;2.90;1.00;;;;;;5038189;28;20349;-84
2024/03/08 06:25:43;;;;;;;;;;;2.90;1.00;;;;;;5026663;28;19917;-84
2024/03/08 06:28:09;;;;;;;;;;;3.00;1.00;;;;;;5016808;28;19909;-83
2024/03/08 06:30:34;;;;;;;;;;;3.10;99.90;;;;;;5028745;28;19913;-83
2024/03/08 06:33:00;;;;;;;;;;;3.20;99.90;;;;;;5036961;28;19971;-84
2024/03/08 06:35:25;;;;;;;;;;;3.30;99.90;;;;;;5026642;28;19913;-84
2024/03/08 06:37:51;;;;;;;;;;;3.40;99.90;;;;;;5019391;28;20000;-84
2024/03/08 06:40:16;;;;;;;;;;;3.40;22.70;;;;;;5019099;28;19935;-84
2024/03/08 06:42:42;;;;;;;;;;;3.50;1.00;;;;;;5018719;28;20298;-84
2024/03/08 06:45:09;;;;;;;;;;;3.60;1.00;;;;;;5019187;28;19976;-84
2024/03/08 06:47:35;;;;;;;;;;;3.70;1.00;;;;;;5031143;28;19913;-83
2024/03/08 06:50:01;;;;;;;;;;;3.80;99.90;;;;;;5031240;28;20574;-83
2024/03/08 06:52:26;;;;;;;;;;;4.30;99.90;;;;;;5036516;28;20019;-83
2024/03/08 06:54:52;;;;;;;;;;;5.00;6.20;;;;;;5029271;28;19925;-85
2024/03/08 06:57:18;;;;;;;;;;;5.40;1.00;;;;;;5041781;28;20287;-84
2024/03/08 06:59:44;;;;;;;;;;;6.70;1.00;;;;;;5042313;28;19948;-83
2024/03/08 07:02:10;;;;;;;;;;;8.70;99.90;;;;;;5041564;28;19945;-83
2024/03/08 07:04:37;;;;;;;;;;;10.50;99.90;;;;;;5040583;28;19909;-80
2024/03/08 07:07:03;;;;;;;;;;;12.00;99.90;;;;;;5035011;28;20287;-80
2024/03/08 07:09:29;;;;;;;;;;;13.20;99.90;;;;;;5029901;28;19914;-82
2024/03/08 07:11:54;;;;;;;;;;;14.30;99.90;;;;;;5036812;28;19932;-81
2024/03/08 07:14:21;;;;;;;;;;;15.20;99.90;;;;;;5036815;28;19913;-81
2024/03/08 07:16:47;;;;;;;;;;;16.00;99.90;;;;;;5036620;28;19928;-82
2024/03/08 07:19:12;;;;;;;;;;;16.60;99.90;;;;;;5033005;28;19917;-82
2024/03/08 07:21:38;;;;;;;;;;;17.10;99.90;;;;;;5035667;28;19917;-82
2024/03/08 07:24:20;;;;;;;;;;;17.70;99.90;;;;;;5034712;28;20367;-83
2024/03/08 07:26:49;;;;;;;;;;;18.40;99.90;;;;;;5027578;28;20302;-83
2024/03/08 07:29:15;;;;;;;;;;;19.00;99.90;;;;;;5032442;28;19966;-82
2024/03/08 07:34:07;;;;;;;;;;;19.60;99.90;;;;;;5030426;28;19924;-83
2024/03/08 07:36:33;;;;;;;;;;;19.60;99.90;;;;;;5033421;28;19917;-82
2024/03/08 07:38:59;;;;;;;;;;;20.00;99.90;;;;;;5037884;28;19959;-82
2024/03/08 07:41:24;;;;;;;;;;;20.60;99.90;;;;;;5038349;28;19909;-83
2024/03/08 07:43:50;;;;;;;;;;;21.10;99.90;;;;;;5028311;28;19913;-82
2024/03/08 07:46:18;;;;;;;;;;;21.60;99.90;;;;;;5032154;28;19913;-80
2024/03/08 07:48:44;;;;;;;;;;;21.50;99.90;;;;;;5035027;28;20378;-82
2024/03/08 07:51:12;;;;;;;;;;;21.50;99.90;;;;;;5034738;28;19917;-83
2024/03/08 07:53:37;;;;;;;;;;;21.70;99.90;;;;;;5029018;28;19925;-82
2024/03/08 07:56:04;;;;;;;;;;;21.90;99.90;;;;;;5023529;28;19914;-83
2024/03/08 07:58:30;;;;;;;;;;;22.30;99.90;;;;;;5032373;28;19914;-82
2024/03/08 08:00:56;;;;;;;;;;;22.60;99.90;;;;;;5034394;28;19917;-83
2024/03/08 08:03:21;;;;;;;;;;;22.80;99.90;;;;;;5037115;28;19940;-82
2024/03/08 08:05:47;;;;;;;;;;;23.10;99.90;;;;;;5032550;28;19943;-83
2024/03/08 08:08:12;;;;;;;;;;;23.30;99.90;;;;;;5033496;28;19917;-82
2024/03/08 08:10:38;;;;;;;;;;;23.50;99.90;;;;;;5029178;28;19913;-81
2024/03/08 08:13:06;;;;;;;;;;;23.50;99.90;;;;;;5022523;28;19945;-82
2024/03/08 08:15:34;;;;;;;;;;;23.30;99.90;;;;;;5021604;28;19914;-81
2024/03/08 08:17:59;;;;;;;;;;;23.20;99.90;;;;;;5039746;28;19913;-82
2024/03/08 08:20:26;;;;;;;;;;;23.20;99.90;;;;;;5035491;28;19914;-81
2024/03/08 08:22:52;;;;;;;;;;;23.10;99.90;;;;;;5029629;28;19971;-81
2024/03/08 08:25:20;;;;;;;;;;;23.30;99.90;;;;;;5026414;28;19939;-82
2024/03/08 08:27:45;;;;;;;;;;;23.50;99.90;;;;;;5022643;28;19917;-82
2024/03/08 08:30:11;;;;;;;;;;;23.90;99.90;;;;;;5020996;28;19909;-83
2024/03/08 08:32:37;;;;;;;;;;;23.80;99.90;;;;;;5021755;28;20000;-81
2024/03/08 08:35:04;;;;;;;;;;;23.80;99.90;;;;;;5030868;28;19917;-81
2024/03/08 08:37:31;;;;;;;;;;;23.90;99.90;;;;;;5033783;28;20342;-82
2024/03/08 08:39:57;;;;;;;;;;;23.90;99.90;;;;;;5026115;28;19921;-82
2024/03/08 08:42:23;;;;;;;;;;;24.20;99.90;;;;;;5020143;28;19995;-81
2024/03/08 08:44:50;;;;;;;;;;;24.00;99.90;;;;;;5028083;28;19909;-81
2024/03/08 08:47:18;;;;;;;;;;;24.10;99.90;;;;;;5027531;28;19913;-81
2024/03/08 08:49:46;;;;;;;;;;;24.10;99.90;;;;;;5029473;28;19999;-81
2024/03/08 08:52:11;;;;;;;;;;;24.20;99.90;;;;;;5031135;28;20279;-81
2024/03/08 08:54:36;;;;;;;;;;;23.80;99.90;;;;;;5028478;28;19913;-81
2024/03/08 08:57:07;;;;;;;;;;;23.70;99.90;;;;;;5028190;28;19920;-81
2024/03/08 08:59:36;;;;;;;;;;;23.90;99.90;;;;;;5029516;28;20300;-81
2024/03/08 09:02:03;;;;;;;;;;;24.00;99.90;;;;;;5018533;28;19922;-81
2024/03/08 09:04:29;;;;;;;;;;;24.10;99.90;;;;;;5018734;28;19916;-81
2024/03/08 09:06:54;;;;;;;;;;;24.10;99.90;;;;;;5032299;28;19914;-81
2024/03/08 09:09:21;;;;;;;;;;;24.30;99.90;;;;;;5030538;28;19944;-81
2024/03/08 09:11:47;;;;;;;;;;;24.30;99.90;;;;;;5017864;28;19925;-80
2024/03/08 09:14:13;;;;;;;;;;;24.60;99.90;;;;;;5023620;28;19910;-81
2024/03/08 09:16:38;;;;;;;;;;;24.50;99.90;;;;;;5029787;28;19917;-81
2024/03/08 09:19:05;;;;;;;;;;;24.70;99.90;;;;;;5023874;28;19909;-82
2024/03/08 09:21:31;;;;;;;;;;;24.50;99.90;;;;;;5033964;28;19910;-81
2024/03/08 09:23:58;;;;;;;;;;;24.60;99.90;;;;;;5038947;28;19928;-81
2024/03/08 09:26:24;;;;;;;;;;;24.80;99.90;;;;;;5035925;28;19909;-81
2024/03/08 09:28:49;;;;;;;;;;;25.20;99.90;;;;;;5030235;28;20437;-82
2024/03/08 09:31:15;;;;;;;;;;;25.50;99.90;;;;;;5021874;28;19914;-83
2024/03/08 09:33:41;;;;;;;;;;;25.60;99.90;;;;;;5028517;28;20375;-80
2024/03/08 09:36:07;;;;;;;;;;;25.40;99.90;;;;;;5036124;28;19983;-82
2024/03/08 09:38:34;;;;;;;;;;;24.90;99.90;;;;;;5036819;28;20283;-82
2024/03/08 09:41:01;;;;;;;;;;;24.70;99.90;;;;;;5037792;28;19912;-81
2024/03/08 09:43:28;;;;;;;;;;;24.30;99.90;;;;;;5036056;28;19917;-80
2024/03/08 09:45:55;;;;;;;;;;;24.10;99.90;;;;;;5035616;28;19985;-82
2024/03/08 09:48:21;;;;;;;;;;;24.00;99.90;;;;;;5036220;28;20351;-80
2024/03/08 09:50:48;;;;;;;;;;;24.40;99.90;;;;;;5027881;28;19922;-81
2024/03/08 09:53:13;;;;;;;;;;;24.20;99.90;;;;;;5031418;28;19914;-81
2024/03/08 09:55:45;;;;;;;;;;;24.20;99.90;;;;;;5037399;28;20007;-80
2024/03/08 10:00:45;;;;;;;;;;;24.00;99.90;;;;;;5035847;28;19917;-82
2024/03/08 10:03:11;;;;;;;;;;;23.70;99.90;;;;;;5039543;28;20000;-81
2024/03/08 10:05:36;;;;;;;;;;;23.60;99.90;;;;;;5037214;28;19917;-82
2024/03/08 10:08:02;;;;;;;;;;;23.60;99.90;;;;;;5042438;28;19917;-81
2024/03/08 10:10:28;;;;;;;;;;;23.60;99.90;;;;;;5038766;28;19913;-82
2024/03/08 10:12:54;;;;;;;;;;;23.60;99.90;;;;;;5034627;28;19921;-81
2024/03/08 10:15:20;;;;;;;;;;;23.50;99.90;;;;;;5030556;28;19949;-84
2024/03/08 10:17:45;;;;;;;;;;;23.30;99.90;;;;;;5033871;28;19920;-84
2024/03/08 10:20:17;;;;;;;;;;;23.20;99.90;;;;;;5030174;28;19914;-80
2024/03/08 10:22:43;;;;;;;;;;;23.50;99.90;;;;;;5038504;28;19909;-80
2024/03/08 10:25:12;;;;;;;;;;;23.50;99.90;;;;;;5031996;28;19909;-81
2024/03/08 10:27:38;;;;;;;;;;;23.00;99.90;;;;;;5025117;28;20371;-82
2024/03/08 10:30:06;;;;;;;;;;;22.50;99.90;;;;;;5037269;28;19913;-81
2024/03/08 10:32:31;;;;;;;;;;;22.10;99.90;;;;;;5037318;28;19909;-80
2024/03/08 10:34:57;;;;;;;;;;;21.70;99.90;;;;;;5040610;28;19919;-82
2024/03/08 10:37:24;;;;;;;;;;;22.00;99.90;;;;;;5038621;28;19909;-81
2024/03/08 10:40:00;;;;;;;;;;;22.20;99.90;;;;;;5032156;28;20012;-83
2024/03/08 10:42:28;;;;;;;;;;;22.00;99.90;;;;;;5022232;28;19910;-83
2024/03/08 10:45:02;;;;;;;;;;;22.20;99.90;;;;;;5036780;28;19933;-83
2024/03/08 10:47:30;;;;;;;;;;;22.20;99.90;;;;;;5029931;28;19917;-80
2024/03/08 10:50:16;;;;;;;;;;;22.10;99.90;;;;;;5036766;28;19948;-82
2024/03/08 10:52:42;;;;;;;;;;;21.90;99.90;;;;;;5041358;28;19913;-81
2024/03/08 10:55:12;;;;;;;;;;;21.80;99.90;;;;;;5021779;28;19968;-82
2024/03/08 10:57:38;;;;;;;;;;;22.00;99.90;;;;;;5028719;28;19909;-82
2024/03/08 11:00:07;;;;;;;;;;;22.30;99.90;;;;;;5033377;28;19945;-80
2024/03/08 11:02:34;;;;;;;;;;;22.20;99.90;;;;;;5032885;28;19917;-83
2024/03/08 11:05:01;;;;;;;;;;;22.10;99.90;;;;;;5039254;28;19996;-82
2024/03/08 11:07:28;;;;;;;;;;;22.20;99.90;;;;;;5039024;28;19917;-79
2024/03/08 11:09:56;;;;;;;;;;;22.40;99.90;;;;;;5037577;28;20018;-81
2024/03/08 11:12:25;;;;;;;;;;;22.90;99.90;;;;;;5037015;28;19917;-81
2024/03/08 11:14:52;;;;;;;;;;;23.20;99.90;;;;;;5030850;28;19917;-81
2024/03/08 11:17:27;;;;;;;;;;;22.70;99.90;;;;;;5034463;28;20326;-82
2024/03/08 11:19:56;;;;;;;;;;;22.50;99.90;;;;;;5029291;28;20334;-81
2024/03/08 11:22:30;;;;;;;;;;;22.70;99.90;;;;;;5038460;28;19931;-81
2024/03/08 11:25:03;;;;;;;;;;;23.30;99.90;;;;;;5030861;28;19914;-81
2024/03/08 11:27:29;;;;;;;;;;;24.20;99.90;;;;;;5036982;28;19909;-81
2024/03/08 11:30:12;;;;;;;;;;;24.10;99.90;;;;;;5026653;28;19916;-82
2024/03/08 11:32:38;;;;;;;;;;;23.40;99.90;;;;;;5030445;28;19916;-83
2024/03/08 11:35:08;;;;;;;;;;;23.10;99.90;;;;;;5023239;28;19917;-82
2024/03/08 11:37:37;;;;;;;;;;;22.90;99.90;;;;;;5039848;28;20065;-83
2024/03/08 11:40:12;;;;;;;;;;;22.50;99.90;;;;;;5036317;28;19913;-82
2024/03/08 11:42:37;;;;;;;;;;;22.10;99.90;;;;;;5042918;28;19931;-82
2024/03/08 11:45:08;;;;;;;;;;;22.00;99.90;;;;;;5036767;28;19917;-83
2024/03/08 11:47:35;;;;;;;;;;;22.00;99.90;;;;;;5037345;28;19913;-82
2024/03/08 11:50:03;;;;;;;;;;;22.00;99.90;;;;;;5042523;28;20051;-82
2024/03/08 11:52:29;;;;;;;;;;;22.00;99.90;;;;;;5036665;28;19983;-82
2024/03/08 11:54:56;;;;;;;;;;;21.90;99.90;;;;;;5032256;28;19944;-82
2024/03/08 11:57:23;;;;;;;;;;;21.70;99.90;;;;;;5022939;28;19910;-81
2024/03/08 12:00:04;;;;;;;;;;;;;;;;;;;;;
2024/03/08 12:05:56;;;;;;;;;;;22.00;99.90;;;;;;5017084;28;19932;-85
2024/03/08 12:08:22;;;;;;;;;;;21.80;99.90;;;;;;5038015;28;19921;-85
2024/03/08 12:10:47;;;;;;;;;;;21.70;99.90;;;;;;5055797;28;19920;-85
2024/03/08 12:13:14;;;;;;;;;;;21.60;99.90;;;;;;5040891;28;19910;-86
2024/03/08 12:15:40;;;;;;;;;;;21.30;99.90;;;;;;5040149;28;19920;-85
2024/03/08 12:18:06;;;;;;;;;;;21.10;99.90;;;;;;5049907;28;19955;-84
2024/03/08 12:20:32;;;;;;;;;;;21.20;99.90;;;;;;5040512;28;19914;-83
2024/03/08 12:22:58;;;;;;;;;;;21.20;99.90;;;;;;5049190;28;20007;-84
2024/03/08 12:25:41;;;;;;;;;;;21.20;99.90;;;;;;5057344;28;19912;-85
2024/03/08 12:28:10;;;;;;;;;;;20.80;99.90;;;;;;5056047;28;19976;-83
2024/03/08 12:30:43;;;;;;;;;;;20.50;99.90;;;;;;5051785;28;19913;-84
2024/03/08 12:33:10;;;;;;;;;;;20.30;99.90;;;;;;5046857;28;19913;-83
2024/03/08 12:35:37;;;;;;;;;;;20.50;99.90;;;;;;5041362;28;19996;-82
2024/03/08 12:38:02;;;;;;;;;;;20.40;99.90;;;;;;5036420;28;19913;-84
2024/03/08 12:40:29;;;;;;;;;;;20.20;99.90;;;;;;5042870;28;19958;-84
2024/03/08 12:42:55;;;;;;;;;;;20.00;99.90;;;;;;5055630;28;19916;-83
2024/03/08 12:45:23;;;;;;;;;;;19.60;99.90;;;;;;5057148;28;19913;-83
2024/03/08 12:47:53;;;;;;;;;;;19.50;99.90;;;;;;5049144;28;20053;-84
2024/03/08 12:50:19;;;;;;;;;;;19.40;99.90;;;;;;5034810;28;19920;-83
2024/03/08 12:52:44;;;;;;;;;;;19.60;99.90;;;;;;5037112;28;20371;-84
2024/03/08 12:55:10;;;;;;;;;;;19.60;99.90;;;;;;5031324;28;19918;-83
2024/03/08 12:57:37;;;;;;;;;;;19.40;99.90;;;;;;5036851;28;19913;-85
2024/03/08 13:00:03;;;;;;;;;;;19.20;99.90;;;;;;5037472;28;20418;-83
2024/03/08 13:02:30;;;;;;;;;;;19.10;99.90;;;;;;5037084;28;19917;-85
2024/03/08 13:04:57;;;;;;;;;;;18.70;99.90;;;;;;5032514;28;20019;-82
2024/03/08 13:07:25;;;;;;;;;;;18.60;99.90;;;;;;5046551;28;19912;-84
2024/03/08 13:09:59;;;;;;;;;;;18.60;99.90;;;;;;5041169;28;19963;-82
2024/03/08 13:12:25;;;;;;;;;;;18.40;99.90;;;;;;5032781;28;19947;-83
2024/03/08 13:14:50;;;;;;;;;;;18.20;99.90;;;;;;5055306;28;19913;-84
2024/03/08 13:17:18;;;;;;;;;;;18.20;99.90;;;;;;5056857;28;20294;-83
2024/03/08 13:19:46;;;;;;;;;;;18.10;99.90;;;;;;5052744;28;19924;-85
2024/03/08 13:22:12;;;;;;;;;;;18.00;99.90;;;;;;5042237;28;19917;-85
2024/03/08 13:24:41;;;;;;;;;;;17.90;99.90;;;;;;5035776;28;19913;-85
2024/03/08 13:27:19;;;;;;;;;;;17.70;99.90;;;;;;5036325;28;19909;-84
2024/03/08 13:29:45;;;;;;;;;;;17.70;99.90;;;;;;5060837;28;19989;-84
2024/03/08 13:32:11;;;;;;;;;;;17.80;99.90;;;;;;5056024;28;20402;-85
2024/03/08 13:34:41;;;;;;;;;;;17.80;99.90;;;;;;5045861;28;19909;-86
2024/03/08 13:37:06;;;;;;;;;;;17.80;99.90;;;;;;5041468;28;19916;-84
2024/03/08 13:39:40;;;;;;;;;;;17.80;99.90;;;;;;5043232;28;20007;-85
2024/03/08 13:42:16;;;;;;;;;;;17.90;99.90;;;;;;5044137;28;19909;-83
2024/03/08 13:44:48;;;;;;;;;;;17.90;99.90;;;;;;5045536;28;19909;-86
2024/03/08 13:47:17;;;;;;;;;;;17.80;99.90;;;;;;5045652;28;19919;-85
2024/03/08 13:49:43;;;;;;;;;;;17.80;99.90;;;;;;5046268;28;19959;-84
2024/03/08 13:52:09;;;;;;;;;;;17.70;99.90;;;;;;5039427;28;19913;-81
2024/03/08 13:54:35;;;;;;;;;;;17.50;99.90;;;;;;5040084;28;19909;-83
2024/03/08 13:57:03;;;;;;;;;;;17.50;99.90;;;;;;5055710;28;19915;-82
2024/03/08 13:59:29;;;;;;;;;;;17.40;99.90;;;;;;5055405;28;19913;-84
2024/03/08 14:01:56;;;;;;;;;;;17.30;99.90;;;;;;5057903;28;19947;-84
2024/03/08 14:04:21;;;;;;;;;;;17.20;99.90;;;;;;5047174;28;19917;-84
2024/03/08 14:06:49;;;;;;;;;;;17.30;99.90;;;;;;5046339;28;20037;-85
2024/03/08 14:09:17;;;;;;;;;;;17.40;99.90;;;;;;5054051;28;19944;-83
2024/03/08 14:11:44;;;;;;;;;;;17.50;99.90;;;;;;5043468;28;19917;-83
2024/03/08 14:14:10;;;;;;;;;;;17.40;99.90;;;;;;5050721;28;19936;-85
2024/03/08 14:16:37;;;;;;;;;;;17.20;99.90;;;;;;5048034;28;20272;-83
2024/03/08 14:19:05;;;;;;;;;;;17.10;99.90;;;;;;5056977;28;19943;-85
2024/03/08 14:21:31;;;;;;;;;;;16.90;99.90;;;;;;5043923;28;19909;-81
2024/03/08 14:23:57;;;;;;;;;;;16.90;99.90;;;;;;5062203;28;19951;-82
2024/03/08 14:26:22;;;;;;;;;;;16.90;99.90;;;;;;5062303;28;19921;-83
2024/03/08 14:28:51;;;;;;;;;;;16.80;99.90;;;;;;5061643;28;20008;-84
2024/03/08 14:31:18;;;;;;;;;;;16.70;99.90;;;;;;5056215;28;19917;-83